createdAt,value
2022-10-01T00:01:14.945Z,100.00
2022-10-01T00:03:48.202Z,100.00
2022-10-01T00:06:22.389Z,100.00
2022-10-01T00:08:55.912Z,100.00
2022-10-01T00:11:31.624Z,100.00
2022-10-01T00:14:04.784Z,100.00
2022-10-01T00:16:39.197Z,100.00
2022-10-01T00:19:15.579Z,100.00
2022-10-01T00:21:48.415Z,100.00
2022-10-01T00:24:21.564Z,100.00
2022-10-01T00:26:55.156Z,100.00
2022-10-01T00:29:28.230Z,100.00
2022-10-01T00:32:01.701Z,100.00
2022-10-01T00:34:34.692Z,100.00
2022-10-01T00:37:10.642Z,100.00
2022-10-01T00:39:43.052Z,100.00
2022-10-01T00:42:25.487Z,100.00
2022-10-01T00:45:00.635Z,100.00
2022-10-01T00:47:38.292Z,100.00
2022-10-01T00:50:33.477Z,100.00
2022-10-01T00:53:11.121Z,100.00
2022-10-01T00:55:56.117Z,100.00
2022-10-01T00:58:30.186Z,100.00
2022-10-01T01:01:03.229Z,100.00
2022-10-01T01:03:37.328Z,100.00
2022-10-01T01:06:10.287Z,100.00
2022-10-01T01:08:44.023Z,100.00
2022-10-01T01:11:24.287Z,100.00
2022-10-01T01:14:17.422Z,100.00
2022-10-01T01:17:08.054Z,100.00
2022-10-01T01:20:21.924Z,100.00
2022-10-01T01:23:11.524Z,100.00
2022-10-01T01:26:16.538Z,100.00
2022-10-01T01:28:53.164Z,100.00
2022-10-01T01:31:34.546Z,100.00
2022-10-01T01:34:13.625Z,100.00
2022-10-01T01:36:51.170Z,100.00
2022-10-01T01:39:26.361Z,100.00
2022-10-01T01:42:04.054Z,100.00
2022-10-01T01:44:41.005Z,100.00
2022-10-01T01:47:15.526Z,100.00
2022-10-01T01:49:50.215Z,100.00
2022-10-01T01:52:22.893Z,100.00
2022-10-01T01:54:56.842Z,100.00
2022-10-01T01:57:29.870Z,100.00
2022-10-01T02:00:04.148Z,100.00
2022-10-01T02:02:41.693Z,100.00
2022-10-01T02:05:19.133Z,100.00
2022-10-01T02:08:02.329Z,100.00
2022-10-01T02:10:48.397Z,100.00
2022-10-01T02:13:48.295Z,100.00
2022-10-01T02:16:31.963Z,100.00
2022-10-01T02:19:21.243Z,100.00
2022-10-01T02:22:01.748Z,100.00
2022-10-01T02:24:45.717Z,100.00
2022-10-01T02:27:32.318Z,100.00
2022-10-01T02:30:08.875Z,100.00
2022-10-01T02:32:45.336Z,100.00
2022-10-01T02:35:20.636Z,100.00
2022-10-01T02:37:54.810Z,100.00
2022-10-01T02:40:31.200Z,100.00
2022-10-01T02:43:20.378Z,100.00
2022-10-01T02:45:58.747Z,100.00
2022-10-01T02:48:31.993Z,100.00
2022-10-01T02:51:09.515Z,100.00
2022-10-01T02:53:48.410Z,100.00
2022-10-01T02:56:23.042Z,100.00
2022-10-01T02:58:56.015Z,100.00
2022-10-01T03:01:29.987Z,100.00
2022-10-01T03:04:03.307Z,100.00
2022-10-01T03:06:37.485Z,100.00
2022-10-01T03:09:10.392Z,100.00
2022-10-01T03:11:45.023Z,100.00
2022-10-01T03:14:19.365Z,100.00
2022-10-01T03:16:53.326Z,100.00
2022-10-01T03:19:26.239Z,100.00
2022-10-01T03:21:59.224Z,100.00
2022-10-01T03:24:32.650Z,100.00
2022-10-01T03:27:05.627Z,100.00
2022-10-01T03:29:38.483Z,100.00
2022-10-01T03:32:11.624Z,100.00
2022-10-01T03:34:45.048Z,100.00
2022-10-01T03:37:17.824Z,100.00
2022-10-01T03:39:51.457Z,100.00
2022-10-01T03:42:24.333Z,100.00
2022-10-01T03:44:58.138Z,100.00
2022-10-01T03:47:30.991Z,100.00
2022-10-01T03:50:03.987Z,100.00
2022-10-01T03:52:37.771Z,100.00
2022-10-01T03:55:11.422Z,100.00
2022-10-01T03:57:44.436Z,100.00
2022-10-01T04:00:18.734Z,100.00
2022-10-01T04:02:51.457Z,100.00
2022-10-01T04:05:25.940Z,100.00
2022-10-01T04:07:59.979Z,100.00
2022-10-01T04:10:33.607Z,100.00
2022-10-01T04:13:07.635Z,100.00
2022-10-01T04:15:41.033Z,100.00
2022-10-01T04:18:14.120Z,100.00
2022-10-01T04:20:47.249Z,100.00
2022-10-01T04:23:20.150Z,100.00
2022-10-01T04:25:53.355Z,100.00
2022-10-01T04:28:26.143Z,100.00
2022-10-01T04:31:16.763Z,100.00
2022-10-01T04:33:49.786Z,100.00
2022-10-01T04:36:24.028Z,100.00
2022-10-01T04:39:02.110Z,100.00
2022-10-01T04:41:34.467Z,100.00
2022-10-01T04:44:07.084Z,100.00
2022-10-01T04:46:40.336Z,100.00
2022-10-01T04:49:13.100Z,100.00
2022-10-01T04:51:45.973Z,100.00
2022-10-01T04:54:18.774Z,100.00
2022-10-01T04:56:51.764Z,100.00
2022-10-01T04:59:25.913Z,100.00
2022-10-01T05:01:58.131Z,100.00
2022-10-01T05:04:31.025Z,100.00
2022-10-01T05:07:04.129Z,100.00
2022-10-01T05:09:37.077Z,100.00
2022-10-01T05:12:09.988Z,100.00
2022-10-01T05:14:43.025Z,100.00
2022-10-01T05:17:17.598Z,100.00
2022-10-01T05:19:52.403Z,100.00
2022-10-01T05:22:25.353Z,100.00
2022-10-01T05:24:59.829Z,100.00
2022-10-01T05:27:40.389Z,100.00
2022-10-01T05:30:17.319Z,100.00
2022-10-01T05:33:02.454Z,100.00
2022-10-01T05:35:35.295Z,100.00
2022-10-01T05:38:08.203Z,100.00
2022-10-01T05:40:41.772Z,100.00
2022-10-01T05:43:14.919Z,100.00
2022-10-01T05:45:48.299Z,100.00
2022-10-01T05:48:22.091Z,100.00
2022-10-01T05:50:54.659Z,100.00
2022-10-01T05:53:27.827Z,100.00
2022-10-01T05:56:05.491Z,100.00
2022-10-01T05:58:39.071Z,100.00
2022-10-01T06:01:11.761Z,100.00
2022-10-01T06:03:45.132Z,100.00
2022-10-01T06:06:20.107Z,100.00
2022-10-01T06:08:53.785Z,100.00
2022-10-01T06:11:27.372Z,100.00
2022-10-01T06:14:01.152Z,100.00
2022-10-01T06:16:36.095Z,100.00
2022-10-01T06:19:09.313Z,100.00
2022-10-01T06:21:42.726Z,100.00
2022-10-01T06:24:15.638Z,99.96
2022-10-01T06:26:49.310Z,99.36
2022-10-01T06:29:22.203Z,99.28
2022-10-01T06:31:55.410Z,99.08
2022-10-01T06:34:29.057Z,98.85
2022-10-01T06:37:02.483Z,98.74
2022-10-01T06:39:35.358Z,98.13
2022-10-01T06:42:08.380Z,97.76
2022-10-01T06:44:42.568Z,96.63
2022-10-01T06:47:14.648Z,96.12
2022-10-01T06:49:47.891Z,95.45
2022-10-01T06:52:39.081Z,94.87
2022-10-01T06:55:16.475Z,94.54
2022-10-01T06:57:47.232Z,94.33
2022-10-01T07:00:20.120Z,93.98
2022-10-01T07:02:53.368Z,93.65
2022-10-01T07:05:27.540Z,93.79
2022-10-01T07:08:00.215Z,93.32
2022-10-01T07:10:35.277Z,92.83
2022-10-01T07:13:18.609Z,92.39
2022-10-01T07:15:51.445Z,92.23
2022-10-01T07:18:24.963Z,92.04
2022-10-01T07:20:59.616Z,91.87
2022-10-01T07:23:32.577Z,91.24
2022-10-01T07:26:09.560Z,90.79
2022-10-01T07:28:42.677Z,89.82
2022-10-01T07:31:16.255Z,89.15
2022-10-01T07:33:49.202Z,88.36
2022-10-01T07:36:22.047Z,88.00
2022-10-01T07:38:56.115Z,86.22
2022-10-01T07:41:28.846Z,85.83
2022-10-01T07:44:03.713Z,85.13
2022-10-01T07:46:37.047Z,84.17
2022-10-01T07:49:11.580Z,83.82
2022-10-01T07:51:45.083Z,83.15
2022-10-01T07:54:20.480Z,82.65
2022-10-01T07:56:56.085Z,81.72
2022-10-01T07:59:31.498Z,79.78
2022-10-01T08:02:04.832Z,78.84
2022-10-01T08:04:55.563Z,78.72
2022-10-01T08:07:29.139Z,77.88
2022-10-01T08:10:03.825Z,76.66
2022-10-01T08:12:37.222Z,75.76
2022-10-01T08:15:11.988Z,75.43
2022-10-01T08:17:45.750Z,75.37
2022-10-01T08:20:18.767Z,74.48
2022-10-01T08:22:51.738Z,74.16
2022-10-01T08:25:25.541Z,74.22
2022-10-01T08:28:00.540Z,74.39
2022-10-01T08:30:34.123Z,74.74
2022-10-01T08:33:07.515Z,74.74
2022-10-01T08:35:43.823Z,74.70
2022-10-01T08:38:17.869Z,74.73
2022-10-01T08:40:52.601Z,74.58
2022-10-01T08:43:40.106Z,74.30
2022-10-01T08:46:19.670Z,72.74
2022-10-01T08:49:12.241Z,71.92
2022-10-01T08:51:55.385Z,70.11
2022-10-01T08:54:41.338Z,69.75
2022-10-01T08:57:32.375Z,68.83
2022-10-01T09:00:10.193Z,68.63
2022-10-01T09:02:46.234Z,68.88
2022-10-01T09:05:32.617Z,69.20
2022-10-01T09:08:35.346Z,69.57
2022-10-01T09:11:26.034Z,67.55
2022-10-01T09:14:15.267Z,66.57
2022-10-01T09:17:11.152Z,65.82
2022-10-01T09:20:14.322Z,64.34
2022-10-01T09:23:15.708Z,62.51
2022-10-01T09:25:52.890Z,61.83
2022-10-01T09:28:35.036Z,62.05
2022-10-01T09:31:32.023Z,62.03
2022-10-01T09:34:19.372Z,60.81
2022-10-01T09:36:59.644Z,60.38
2022-10-01T09:39:43.249Z,60.92
2022-10-01T09:42:16.319Z,60.73
2022-10-01T09:44:49.771Z,60.78
2022-10-01T09:47:25.487Z,60.37
2022-10-01T09:49:59.929Z,60.20
2022-10-01T09:52:38.871Z,60.32
2022-10-01T09:55:42.059Z,60.44
2022-10-01T09:58:20.178Z,60.67
2022-10-01T10:00:54.915Z,61.23
2022-10-01T10:03:31.335Z,61.91
2022-10-01T10:06:06.967Z,61.17
2022-10-01T10:08:43.780Z,60.56
2022-10-01T10:11:23.598Z,60.59
2022-10-01T10:14:06.877Z,59.64
2022-10-01T10:16:46.431Z,59.96
2022-10-01T10:19:28.765Z,59.72
2022-10-01T10:22:16.257Z,59.14
2022-10-01T10:24:49.016Z,58.83
2022-10-01T10:27:31.487Z,58.88
2022-10-01T10:30:09.230Z,57.68
2022-10-01T10:32:42.993Z,55.87
2022-10-01T10:35:20.375Z,55.41
2022-10-01T10:37:57.534Z,55.49
2022-10-01T10:40:35.012Z,55.05
2022-10-01T10:43:09.685Z,52.96
2022-10-01T10:45:46.185Z,53.12
2022-10-01T10:48:20.010Z,53.43
2022-10-01T10:51:01.762Z,54.01
2022-10-01T10:53:46.987Z,54.11
2022-10-01T10:56:25.554Z,54.55
2022-10-01T10:59:01.385Z,54.22
2022-10-01T11:01:35.376Z,53.60
2022-10-01T11:04:11.645Z,52.95
2022-10-01T11:06:44.443Z,52.63
2022-10-01T11:09:19.140Z,52.59
2022-10-01T11:12:22.363Z,52.41
2022-10-01T11:15:23.472Z,51.80
2022-10-01T11:18:23.327Z,51.59
2022-10-01T11:21:15.751Z,52.16
2022-10-01T11:24:12.277Z,51.57
2022-10-01T11:26:53.287Z,51.16
2022-10-01T11:29:38.099Z,50.67
2022-10-01T11:32:21.480Z,49.70
2022-10-01T11:35:31.119Z,49.26
2022-10-01T11:38:42.307Z,48.39
2022-10-01T11:41:31.899Z,48.69
2022-10-01T11:44:22.364Z,49.24
2022-10-01T11:47:05.416Z,49.51
2022-10-01T11:50:00.624Z,49.35
2022-10-01T11:52:41.688Z,49.93
2022-10-01T11:56:13.314Z,49.27
2022-10-01T11:58:57.546Z,49.12
2022-10-01T12:01:49.230Z,49.20
2022-10-01T12:04:40.944Z,48.66
2022-10-01T12:07:30.200Z,49.17
2022-10-01T12:10:39.640Z,50.28
2022-10-01T12:13:29.401Z,50.85
2022-10-01T12:16:37.229Z,51.55
2022-10-01T12:19:14.824Z,51.83
2022-10-01T12:21:58.292Z,50.12
2022-10-01T12:24:46.181Z,50.74
2022-10-01T12:27:54.264Z,51.59
2022-10-01T12:30:30.642Z,51.36
2022-10-01T12:33:16.340Z,51.11
2022-10-01T12:36:06.164Z,50.82
2022-10-01T12:38:47.079Z,51.16
2022-10-01T12:41:42.505Z,51.56
2022-10-01T12:44:29.488Z,51.91
2022-10-01T12:47:32.677Z,52.82
2022-10-01T12:50:35.855Z,53.54
2022-10-01T12:53:42.277Z,54.21
2022-10-01T12:56:30.706Z,54.71
2022-10-01T12:59:32.133Z,55.28
2022-10-01T13:02:27.429Z,55.49
2022-10-01T13:05:28.773Z,55.88
2022-10-01T13:08:21.144Z,55.87
2022-10-01T13:11:29.139Z,55.79
2022-10-01T13:14:03.705Z,55.58
2022-10-01T13:16:54.709Z,55.75
2022-10-01T13:19:47.026Z,55.84
2022-10-01T13:22:46.179Z,56.05
2022-10-01T13:25:26.689Z,56.36
2022-10-01T13:28:13.431Z,55.07
2022-10-01T13:31:02.820Z,53.36
2022-10-01T13:33:39.174Z,52.48
2022-10-01T13:36:13.479Z,52.10
2022-10-01T13:38:48.256Z,51.71
2022-10-01T13:41:24.861Z,51.81
2022-10-01T13:44:26.985Z,52.32
2022-10-01T13:47:10.251Z,52.81
2022-10-01T13:49:43.225Z,52.96
2022-10-01T13:52:22.571Z,53.32
2022-10-01T13:54:58.245Z,53.26
2022-10-01T13:57:39.401Z,53.20
2022-10-01T14:00:19.758Z,53.48
2022-10-01T14:03:29.894Z,54.15
2022-10-01T14:06:06.673Z,54.54
2022-10-01T14:09:33.063Z,54.82
2022-10-01T14:12:28.011Z,55.40
2022-10-01T14:15:21.593Z,56.45
2022-10-01T14:18:07.224Z,57.02
2022-10-01T14:21:18.203Z,57.51
2022-10-01T14:24:24.422Z,57.94
2022-10-01T14:27:07.520Z,58.24
2022-10-01T14:29:55.015Z,58.70
2022-10-01T14:32:49.279Z,59.07
2022-10-01T14:35:41.979Z,59.41
2022-10-01T14:38:21.121Z,59.80
2022-10-01T14:40:55.152Z,60.30
2022-10-01T14:43:31.534Z,60.64
2022-10-01T14:46:17.191Z,60.94
2022-10-01T14:49:00.207Z,61.21
2022-10-01T14:51:33.622Z,61.52
2022-10-01T14:54:06.438Z,61.53
2022-10-01T14:56:42.747Z,61.73
2022-10-01T14:59:22.989Z,61.95
2022-10-01T15:02:02.722Z,62.21
2022-10-01T15:04:36.012Z,62.51
2022-10-01T15:07:13.673Z,62.82
2022-10-01T15:09:47.903Z,63.13
2022-10-01T15:12:22.815Z,63.36
2022-10-01T15:14:57.195Z,63.65
2022-10-01T15:17:29.928Z,64.02
2022-10-01T15:20:03.908Z,64.45
2022-10-01T15:22:36.914Z,64.76
2022-10-01T15:25:14.316Z,65.20
2022-10-01T15:27:49.532Z,65.45
2022-10-01T15:30:23.637Z,66.17
2022-10-01T15:32:55.694Z,66.17
2022-10-01T15:35:28.475Z,66.54
2022-10-01T15:38:01.364Z,66.87
2022-10-01T15:40:36.121Z,67.20
2022-10-01T15:43:15.856Z,67.74
2022-10-01T15:45:53.368Z,68.64
2022-10-01T15:48:31.153Z,68.64
2022-10-01T15:51:25.795Z,69.40
2022-10-01T15:54:02.961Z,69.97
2022-10-01T15:56:36.210Z,70.73
2022-10-01T15:59:16.558Z,71.13
2022-10-01T16:01:49.851Z,71.30
2022-10-01T16:04:23.605Z,71.74
2022-10-01T16:06:57.282Z,72.17
2022-10-01T16:09:31.201Z,72.59
2022-10-01T16:12:14.512Z,72.82
2022-10-01T16:15:02.484Z,73.18
2022-10-01T16:17:42.716Z,73.59
2022-10-01T16:20:38.027Z,74.11
2022-10-01T16:23:43.875Z,74.37
2022-10-01T16:26:38.460Z,74.79
2022-10-01T16:29:19.609Z,75.26
2022-10-01T16:31:53.093Z,75.61
2022-10-01T16:34:28.343Z,76.14
2022-10-01T16:37:01.182Z,76.37
2022-10-01T16:39:35.154Z,76.67
2022-10-01T16:42:23.511Z,76.97
2022-10-01T16:44:43.093Z,77.19
2022-10-01T16:47:15.859Z,77.35
2022-10-01T16:49:50.498Z,77.62
2022-10-01T16:52:23.818Z,77.83
2022-10-01T16:54:56.802Z,78.10
2022-10-01T16:57:30.367Z,78.18
2022-10-01T17:00:03.481Z,78.49
2022-10-01T17:02:37.182Z,78.59
2022-10-01T17:05:25.685Z,78.60
2022-10-01T17:08:01.847Z,78.79
2022-10-01T17:10:38.718Z,78.98
2022-10-01T17:13:13.050Z,79.22
2022-10-01T17:15:48.690Z,79.33
2022-10-01T17:18:22.398Z,79.54
2022-10-01T17:20:55.535Z,79.65
2022-10-01T17:23:28.755Z,79.73
2022-10-01T17:26:01.793Z,79.98
2022-10-01T17:28:35.064Z,80.25
2022-10-01T17:31:12.235Z,80.53
2022-10-01T17:33:44.785Z,80.65
2022-10-01T17:36:17.531Z,80.92
2022-10-01T17:38:50.462Z,81.11
2022-10-01T17:41:23.791Z,81.35
2022-10-01T17:43:56.689Z,81.55
2022-10-01T17:46:31.277Z,81.90
2022-10-01T17:49:04.559Z,82.08
2022-10-01T17:51:37.800Z,82.27
2022-10-01T17:54:10.749Z,82.75
2022-10-01T17:56:44.426Z,83.04
2022-10-01T17:59:19.255Z,83.18
2022-10-01T18:01:53.343Z,83.47
2022-10-01T18:04:26.783Z,83.59
2022-10-01T18:07:00.238Z,83.67
2022-10-01T18:09:33.114Z,83.87
2022-10-01T18:12:06.383Z,84.14
2022-10-01T18:14:40.524Z,84.32
2022-10-01T18:17:15.768Z,84.59
2022-10-01T18:19:54.247Z,84.91
2022-10-01T18:22:25.222Z,85.07
2022-10-01T18:24:58.506Z,85.08
2022-10-01T18:27:31.568Z,85.28
2022-10-01T18:30:05.016Z,85.39
2022-10-01T18:32:54.617Z,85.65
2022-10-01T18:35:33.744Z,85.74
2022-10-01T18:38:21.756Z,85.90
2022-10-01T18:40:58.446Z,86.05
2022-10-01T18:43:33.802Z,86.21
2022-10-01T18:46:36.656Z,86.32
2022-10-01T18:49:29.390Z,86.44
2022-10-01T18:52:27.916Z,86.42
2022-10-01T18:55:30.708Z,86.61
2022-10-01T18:58:15.348Z,86.77
2022-10-01T19:00:58.937Z,86.93
2022-10-01T19:04:14.103Z,87.04
2022-10-01T19:07:03.848Z,87.15
2022-10-01T19:09:54.550Z,87.34
2022-10-01T19:12:32.539Z,87.43
2022-10-01T19:15:16.368Z,87.51
2022-10-01T19:18:02.839Z,87.75
2022-10-01T19:21:15.992Z,87.87
2022-10-01T19:24:10.089Z,88.08
2022-10-01T19:26:47.692Z,88.45
2022-10-01T19:30:01.713Z,88.45
2022-10-01T19:33:01.919Z,88.39
2022-10-01T19:35:51.523Z,88.41
2022-10-01T19:38:37.819Z,88.51
2022-10-01T19:41:27.114Z,88.66
2022-10-01T19:44:04.406Z,88.68
2022-10-01T19:46:45.925Z,88.73
2022-10-01T19:49:22.795Z,88.77
2022-10-01T19:52:01.664Z,88.76
2022-10-01T19:54:38.794Z,88.78
2022-10-01T19:57:25.322Z,88.65
2022-10-01T20:00:12.130Z,88.78
2022-10-01T20:03:22.987Z,88.74
2022-10-01T20:06:08.021Z,88.75
2022-10-01T20:08:57.313Z,88.66
2022-10-01T20:11:47.885Z,88.62
2022-10-01T20:14:58.436Z,88.63
2022-10-01T20:17:57.117Z,88.60
2022-10-01T20:21:04.532Z,88.55
2022-10-01T20:23:45.252Z,88.58
2022-10-01T20:26:37.123Z,88.65
2022-10-01T20:29:35.028Z,88.72
2022-10-01T20:32:36.507Z,88.77
2022-10-01T20:35:17.289Z,88.86
2022-10-01T20:37:55.259Z,89.19
2022-10-01T20:40:41.544Z,89.42
2022-10-01T20:43:43.272Z,89.63
2022-10-01T20:46:39.184Z,89.93
2022-10-01T20:49:37.159Z,90.19
2022-10-01T20:52:48.109Z,90.32
2022-10-01T20:55:29.462Z,90.59
2022-10-01T20:58:23.204Z,90.89
2022-10-01T21:01:00.942Z,91.08
2022-10-01T21:03:40.424Z,91.32
2022-10-01T21:06:26.432Z,91.49
2022-10-01T21:09:03.899Z,91.66
2022-10-01T21:11:48.442Z,91.80
2022-10-01T21:14:28.060Z,91.75
2022-10-01T21:17:30.074Z,91.76
2022-10-01T21:20:43.896Z,91.81
2022-10-01T21:23:30.420Z,91.91
2022-10-01T21:26:17.769Z,92.20
2022-10-01T21:29:28.683Z,92.31
2022-10-01T21:32:17.870Z,92.55
2022-10-01T21:35:14.617Z,92.83
2022-10-01T21:38:04.289Z,93.13
2022-10-01T21:41:03.138Z,93.45
2022-10-01T21:43:59.395Z,93.85
2022-10-01T21:46:46.035Z,94.23
2022-10-01T21:49:52.113Z,94.50
2022-10-01T21:52:35.745Z,94.92
2022-10-01T21:55:30.013Z,95.33
2022-10-01T21:58:25.479Z,95.75
2022-10-01T22:01:28.613Z,96.14
2022-10-01T22:04:24.729Z,96.68
2022-10-01T22:07:05.013Z,97.37
2022-10-01T22:09:45.206Z,97.88
2022-10-01T22:12:18.670Z,98.41
2022-10-01T22:14:53.376Z,99.23
2022-10-01T22:17:30.600Z,99.96
2022-10-01T22:20:05.620Z,100.00
2022-10-01T22:22:41.877Z,100.00
2022-10-01T22:25:15.796Z,100.00
2022-10-01T22:27:57.193Z,100.00
2022-10-01T22:30:32.674Z,100.00
2022-10-01T22:33:20.242Z,100.00
2022-10-01T22:36:18.708Z,100.00
2022-10-01T22:38:55.276Z,100.00
2022-10-01T22:41:39.448Z,100.00
2022-10-01T22:44:19.301Z,100.00
2022-10-01T22:47:15.372Z,100.00
2022-10-01T22:50:14.408Z,100.00
2022-10-01T22:53:04.332Z,100.00
2022-10-01T22:55:48.444Z,100.00
2022-10-01T22:58:47.271Z,100.00
2022-10-01T23:02:01.905Z,100.00
2022-10-01T23:04:59.832Z,100.00
2022-10-01T23:07:46.319Z,100.00
2022-10-01T23:10:35.541Z,100.00
2022-10-01T23:13:22.806Z,100.00
2022-10-01T23:16:28.501Z,100.00
2022-10-01T23:19:23.879Z,100.00
2022-10-01T23:22:30.965Z,100.00
2022-10-01T23:25:56.293Z,100.00
2022-10-01T23:28:39.331Z,100.00
2022-10-01T23:31:33.397Z,100.00
2022-10-01T23:34:19.543Z,100.00
2022-10-01T23:37:11.955Z,100.00
2022-10-01T23:39:59.018Z,100.00
2022-10-01T23:43:02.262Z,100.00
2022-10-01T23:45:51.231Z,100.00
2022-10-01T23:48:54.693Z,100.00
2022-10-01T23:51:32.079Z,100.00
2022-10-01T23:54:27.952Z,100.00
2022-10-01T23:57:17.639Z,100.00
